Time,TemperatureF,DewpointF,PressureIn,WindDirection,WindDirectionDegrees,WindSpeedMPH,WindSpeedGustMPH,Humidity,HourlyPrecipIn,Conditions,Clouds,dailyrainin,SoftwareType,DateUTC
2013-01-16 00:02:00,37.0,24.0,-100.00,North,353,2.0,5.0,58,-99.99,,,-99.99,,2013-01-16 08:02:00,
2013-01-16 00:12:00,38.0,24.0,-100.00,NNE,29,2.0,6.0,56,-99.99,,,-99.99,,2013-01-16 08:12:00,
2013-01-16 00:22:00,36.0,23.0,-100.00,SW,218,1.0,4.0,59,-99.99,,,-99.99,,2013-01-16 08:22:00,
2013-01-16 00:32:00,35.0,23.0,-100.00,West,264,1.0,4.0,62,-99.99,,,-99.99,,2013-01-16 08:32:00,
2013-01-16 00:42:00,36.0,24.0,-100.00,ENE,78,1.0,3.0,61,-99.99,,,-99.99,,2013-01-16 08:42:00,
2013-01-16 00:52:00,34.0,23.0,-100.00,NE,36,2.0,5.0,64,-99.99,,,-99.99,,2013-01-16 08:52:00,
2013-01-16 01:02:00,34.0,24.0,-100.00,NW,319,2.0,4.0,66,-99.99,,,-99.99,,2013-01-16 09:02:00,
2013-01-16 01:11:00,34.0,24.0,-100.00,NE,42,2.0,4.0,66,-99.99,,,-99.99,,2013-01-16 09:11:00,
2013-01-16 01:22:00,35.0,24.0,-100.00,North,2,1.0,3.0,63,-99.99,,,-99.99,,2013-01-16 09:22:00,
2013-01-16 01:32:00,36.0,24.0,-100.00,North,359,1.0,3.0,61,-99.99,,,-99.99,,2013-01-16 09:32:00,
2013-01-16 01:42:00,35.0,24.0,-100.00,North,11,1.0,3.0,63,-99.99,,,-99.99,,2013-01-16 09:42:00,
2013-01-16 01:52:00,35.0,24.0,-100.00,NNE,18,2.0,5.0,63,-99.99,,,-99.99,,2013-01-16 09:52:00,
2013-01-16 02:02:00,35.0,24.0,-100.00,ENE,60,1.0,4.0,63,-99.99,,,-99.99,,2013-01-16 10:02:00,
2013-01-16 02:11:00,36.0,24.0,-100.00,North,355,1.0,4.0,62,-99.99,,,-99.99,,2013-01-16 10:11:00,
2013-01-16 02:22:00,36.0,24.0,-100.00,NNE,16,1.0,3.0,61,-99.99,,,-99.99,,2013-01-16 10:22:00,
2013-01-16 02:32:00,36.0,23.0,-100.00,North,349,1.0,3.0,60,-99.99,,,-99.99,,2013-01-16 10:32:00,
2013-01-16 02:42:00,35.0,23.0,-100.00,East,93,2.0,3.0,62,-99.99,,,-99.99,,2013-01-16 10:42:00,
2013-01-16 02:52:00,34.0,23.0,-100.00,WSW,244,1.0,2.0,64,-99.99,,,-99.99,,2013-01-16 10:52:00,
2013-01-16 03:02:00,33.0,24.0,-100.00,WSW,240,1.0,1.0,68,-99.99,,,-99.99,,2013-01-16 11:02:00,
2013-01-16 03:11:00,33.0,23.0,-100.00,NNE,14,0.0,1.0,67,-99.99,,,-99.99,,2013-01-16 11:11:00,
2013-01-16 03:22:00,34.0,24.0,-100.00,North,358,2.0,5.0,66,-99.99,,,-99.99,,2013-01-16 11:22:00,
2013-01-16 03:32:00,35.0,24.0,-100.00,NNE,31,1.0,3.0,63,-99.99,,,-99.99,,2013-01-16 11:32:00,
2013-01-16 03:42:00,35.0,24.0,-100.00,North,353,2.0,5.0,64,-99.99,,,-99.99,,2013-01-16 11:42:00,
2013-01-16 03:52:00,36.0,24.0,-100.00,North,352,3.0,5.0,61,-99.99,,,-99.99,,2013-01-16 11:52:00,
2013-01-16 04:02:00,36.0,23.0,-100.00,NNE,17,2.0,5.0,60,-99.99,,,-99.99,,2013-01-16 12:02:00,
2013-01-16 04:12:00,39.0,24.0,-100.00,North,356,2.0,5.0,54,-99.99,,,-99.99,,2013-01-16 12:12:00,
2013-01-16 04:22:00,38.0,24.0,-100.00,NNE,16,2.0,4.0,57,-99.99,,,-99.99,,2013-01-16 12:22:00,
2013-01-16 04:32:00,38.0,24.0,-100.00,NE,40,1.0,2.0,56,-99.99,,,-99.99,,2013-01-16 12:32:00,
2013-01-16 04:42:00,38.0,24.0,-100.00,NE,40,1.0,2.0,56,-99.99,,,-99.99,,2013-01-16 12:42:00,
2013-01-16 04:52:00,38.0,25.0,-100.00,NNE,18,1.0,3.0,58,-99.99,,,-99.99,,2013-01-16 12:52:00,
2013-01-16 05:02:00,38.0,24.0,-100.00,ENE,57,1.0,3.0,57,-99.99,,,-99.99,,2013-01-16 13:02:00,
2013-01-16 05:12:00,39.0,24.0,-100.00,NNE,30,1.0,3.0,55,-99.99,,,-99.99,,2013-01-16 13:12:00,
2013-01-16 05:22:00,36.0,23.0,-100.00,West,267,1.0,2.0,59,-99.99,,,-99.99,,2013-01-16 13:22:00,
2013-01-16 05:32:00,40.0,25.0,-100.00,NNE,17,1.0,2.0,54,-99.99,,,-99.99,,2013-01-16 13:32:00,
2013-01-16 05:42:00,40.0,25.0,-100.00,NNE,17,1.0,2.0,54,-99.99,,,-99.99,,2013-01-16 13:42:00,
2013-01-16 05:52:00,40.0,24.0,-100.00,NE,37,2.0,4.0,53,-99.99,,,-99.99,,2013-01-16 13:52:00,
2013-01-16 06:02:00,41.0,25.0,-100.00,NNE,29,3.0,5.0,52,-99.99,,,-99.99,,2013-01-16 14:02:00,
2013-01-16 06:12:00,40.0,24.0,-100.00,WNW,286,1.0,3.0,53,-99.99,,,-99.99,,2013-01-16 14:12:00,
2013-01-16 06:22:00,37.0,24.0,-100.00,WSW,251,0.0,1.0,60,-99.99,,,-99.99,,2013-01-16 14:22:00,
2013-01-16 06:32:00,37.0,25.0,-100.00,NNW,348,1.0,4.0,61,-99.99,,,-99.99,,2013-01-16 14:32:00,
2013-01-16 06:42:00,37.0,24.0,-100.00,North,8,1.0,3.0,60,-99.99,,,-99.99,,2013-01-16 14:42:00,
2013-01-16 06:52:00,35.0,24.0,-100.00,NNW,332,1.0,2.0,63,-99.99,,,-99.99,,2013-01-16 14:52:00,
2013-01-16 07:02:00,35.0,24.0,-100.00,East,83,1.0,3.0,65,-99.99,,,-99.99,,2013-01-16 15:02:00,
2013-01-16 07:12:00,35.0,24.0,-100.00,NNW,347,1.0,3.0,65,-99.99,,,-99.99,,2013-01-16 15:12:00,
2013-01-16 07:22:00,35.0,25.0,-100.00,NE,43,1.0,4.0,67,-99.99,,,-99.99,,2013-01-16 15:22:00,
2013-01-16 07:32:00,36.0,25.0,-100.00,North,9,1.0,4.0,63,-99.99,,,-99.99,,2013-01-16 15:32:00,
2013-01-16 07:42:00,36.0,25.0,-100.00,NE,52,1.0,3.0,63,-99.99,,,-99.99,,2013-01-16 15:42:00,
2013-01-16 07:52:00,37.0,25.0,-100.00,NNE,15,1.0,3.0,62,-99.99,,,-99.99,,2013-01-16 15:52:00,
2013-01-16 08:03:00,37.0,25.0,-100.00,NNE,15,1.0,3.0,62,-99.99,,,-99.99,,2013-01-16 16:03:00,
2013-01-16 08:12:00,38.0,26.0,-100.00,North,8,2.0,4.0,61,-99.99,,,-99.99,,2013-01-16 16:12:00,
2013-01-16 08:22:00,42.0,27.0,-100.00,ENE,63,1.0,3.0,55,-99.99,,,-99.99,,2013-01-16 16:22:00,
2013-01-16 08:32:00,39.0,25.0,-100.00,SSW,207,1.0,3.0,58,-99.99,,,-99.99,,2013-01-16 16:32:00,
2013-01-16 08:42:00,42.0,27.0,-100.00,NNE,32,1.0,4.0,55,-99.99,,,-99.99,,2013-01-16 16:42:00,
2013-01-16 08:52:00,43.0,27.0,-100.00,SSW,198,1.0,3.0,53,-99.99,,,-99.99,,2013-01-16 16:52:00,
2013-01-16 09:02:00,43.0,27.0,-100.00,SSW,198,1.0,3.0,53,-99.99,,,-99.99,,2013-01-16 17:02:00,
2013-01-16 09:12:00,46.0,27.0,-100.00,SW,215,1.0,3.0,48,-99.99,,,-99.99,,2013-01-16 17:12:00,
2013-01-16 09:22:00,47.0,27.0,-100.00,South,180,2.0,5.0,46,-99.99,,,-99.99,,2013-01-16 17:22:00,
2013-01-16 09:33:00,50.0,27.0,-100.00,SE,128,1.0,4.0,41,-99.99,,,-99.99,,2013-01-16 17:33:00,
2013-01-16 09:43:00,53.0,26.0,-100.00,SSE,156,1.0,4.0,35,-99.99,,,-99.99,,2013-01-16 17:43:00,
2013-01-16 09:52:00,55.0,25.0,-100.00,South,170,1.0,2.0,31,-99.99,,,-99.99,,2013-01-16 17:52:00,
2013-01-16 10:02:00,56.0,24.0,-100.00,SSW,193,1.0,4.0,29,-99.99,,,-99.99,,2013-01-16 18:02:00,
2013-01-16 10:12:00,57.0,24.0,-100.00,South,183,1.0,4.0,28,-99.99,,,-99.99,,2013-01-16 18:12:00,
2013-01-16 10:22:00,58.0,24.0,-100.00,South,179,1.0,2.0,27,-99.99,,,-99.99,,2013-01-16 18:22:00,
2013-01-16 10:33:00,58.0,24.0,-100.00,SSE,155,1.0,3.0,27,-99.99,,,-99.99,,2013-01-16 18:33:00,
2013-01-16 10:42:00,59.0,24.0,-100.00,SSW,203,1.0,3.0,26,-99.99,,,-99.99,,2013-01-16 18:42:00,
2013-01-16 10:52:00,60.0,24.0,-100.00,SE,125,1.0,3.0,25,-99.99,,,-99.99,,2013-01-16 18:52:00,
2013-01-16 11:02:00,62.0,25.0,-100.00,South,187,1.0,3.0,24,-99.99,,,-99.99,,2013-01-16 19:02:00,
2013-01-16 11:12:00,63.0,25.0,-100.00,SSE,150,1.0,5.0,23,-99.99,,,-99.99,,2013-01-16 19:12:00,
2013-01-16 11:22:00,63.0,25.0,-100.00,SSW,200,2.0,5.0,23,-99.99,,,-99.99,,2013-01-16 19:22:00,
2013-01-16 11:32:00,63.0,24.0,-100.00,WSW,249,1.0,4.0,22,-99.99,,,-99.99,,2013-01-16 19:32:00,
2013-01-16 11:42:00,65.0,24.0,-100.00,South,176,1.0,4.0,21,-99.99,,,-99.99,,2013-01-16 19:42:00,
2013-01-16 11:52:00,66.0,25.0,-100.00,SE,145,1.0,4.0,21,-99.99,,,-99.99,,2013-01-16 19:52:00,
2013-01-16 12:02:00,66.0,25.0,-100.00,South,186,1.0,4.0,21,-99.99,,,-99.99,,2013-01-16 20:02:00,
2013-01-16 12:12:00,66.0,25.0,-100.00,SSW,211,2.0,5.0,21,-99.99,,,-99.99,,2013-01-16 20:12:00,
2013-01-16 12:23:00,66.0,25.0,-100.00,SSW,211,2.0,5.0,21,-99.99,,,-99.99,,2013-01-16 20:23:00,
2013-01-16 12:32:00,66.0,26.0,-100.00,SW,225,3.0,6.0,22,-99.99,,,-99.99,,2013-01-16 20:32:00,
2013-01-16 12:42:00,66.0,26.0,-100.00,WSW,245,4.0,8.0,22,-99.99,,,-99.99,,2013-01-16 20:42:00,
2013-01-16 12:53:00,66.0,27.0,-100.00,SW,235,5.0,12.0,23,-99.99,,,-99.99,,2013-01-16 20:53:00,
2013-01-16 13:02:00,66.0,27.0,-100.00,SW,230,4.0,9.0,23,-99.99,,,-99.99,,2013-01-16 21:02:00,
2013-01-16 13:12:00,66.0,27.0,-100.00,WSW,244,5.0,9.0,23,-99.99,,,-99.99,,2013-01-16 21:12:00,
2013-01-16 13:22:00,67.0,28.0,-100.00,SW,228,3.0,7.0,23,-99.99,,,-99.99,,2013-01-16 21:22:00,
2013-01-16 13:32:00,66.0,27.0,-100.00,SW,219,4.0,7.0,23,-99.99,,,-99.99,,2013-01-16 21:32:00,
2013-01-16 13:42:00,67.0,28.0,-100.00,SW,216,3.0,7.0,23,-99.99,,,-99.99,,2013-01-16 21:42:00,
2013-01-16 13:52:00,68.0,29.0,-100.00,SW,216,3.0,8.0,23,-99.99,,,-99.99,,2013-01-16 21:52:00,
2013-01-16 14:02:00,67.0,28.0,-100.00,WSW,256,4.0,7.0,23,-99.99,,,-99.99,,2013-01-16 22:02:00,
2013-01-16 14:12:00,67.0,29.0,-100.00,SSW,207,2.0,5.0,24,-99.99,,,-99.99,,2013-01-16 22:12:00,
2013-01-16 14:22:00,67.0,29.0,-100.00,SW,227,4.0,8.0,24,-99.99,,,-99.99,,2013-01-16 22:22:00,
2013-01-16 14:32:00,68.0,30.0,-100.00,SW,232,3.0,7.0,24,-99.99,,,-99.99,,2013-01-16 22:32:00,
2013-01-16 14:42:00,68.0,30.0,-100.00,WSW,255,4.0,8.0,24,-99.99,,,-99.99,,2013-01-16 22:42:00,
2013-01-16 14:52:00,68.0,30.0,-100.00,SW,215,3.0,7.0,24,-99.99,,,-99.99,,2013-01-16 22:52:00,
2013-01-16 15:02:00,68.0,30.0,-100.00,SW,216,4.0,7.0,24,-99.99,,,-99.99,,2013-01-16 23:02:00,
2013-01-16 15:12:00,67.0,31.0,-100.00,SW,214,4.0,8.0,26,-99.99,,,-99.99,,2013-01-16 23:12:00,
2013-01-16 15:22:00,68.0,32.0,-100.00,WSW,238,3.0,5.0,26,-99.99,,,-99.99,,2013-01-16 23:22:00,
2013-01-16 15:32:00,69.0,32.0,-100.00,South,191,2.0,6.0,25,-99.99,,,-99.99,,2013-01-16 23:32:00,
2013-01-16 15:42:00,68.0,33.0,-100.00,SW,234,2.0,5.0,27,-99.99,,,-99.99,,2013-01-16 23:42:00,
2013-01-16 15:52:00,69.0,34.0,-100.00,SW,233,2.0,5.0,27,-99.99,,,-99.99,,2013-01-16 23:52:00,
2013-01-16 16:02:00,68.0,34.0,-100.00,SW,225,3.0,5.0,28,-99.99,,,-99.99,,2013-01-17 00:02:00,
2013-01-16 16:12:00,68.0,34.0,-100.00,WSW,252,3.0,7.0,28,-99.99,,,-99.99,,2013-01-17 00:12:00,
2013-01-16 16:22:00,67.0,33.0,-100.00,WSW,255,2.0,4.0,28,-99.99,,,-99.99,,2013-01-17 00:22:00,
2013-01-16 16:32:00,68.0,33.0,-100.00,WSW,240,2.0,6.0,27,-99.99,,,-99.99,,2013-01-17 00:32:00,
2013-01-16 16:42:00,67.0,35.0,-100.00,SSW,209,2.0,4.0,30,-99.99,,,-99.99,,2013-01-17 00:42:00,
2013-01-16 16:52:00,67.0,35.0,-100.00,SSW,211,1.0,2.0,30,-99.99,,,-99.99,,2013-01-17 00:52:00,
2013-01-16 17:02:00,67.0,35.0,-100.00,SW,233,1.0,2.0,31,-99.99,,,-99.99,,2013-01-17 01:02:00,
2013-01-16 17:12:00,66.0,34.0,-100.00,West,268,1.0,2.0,31,-99.99,,,-99.99,,2013-01-17 01:12:00,
2013-01-16 17:22:00,63.0,33.0,-100.00,West,262,1.0,4.0,33,-99.99,,,-99.99,,2013-01-17 01:22:00,
2013-01-16 17:32:00,59.0,33.0,-100.00,NE,52,4.0,7.0,38,-99.99,,,-99.99,,2013-01-17 01:32:00,
2013-01-16 17:42:00,59.0,33.0,-100.00,NE,52,4.0,7.0,38,-99.99,,,-99.99,,2013-01-17 01:42:00,
2013-01-16 17:52:00,58.0,34.0,-100.00,NNW,334,1.0,5.0,41,-99.99,,,-99.99,,2013-01-17 01:52:00,
2013-01-16 18:02:00,56.0,34.0,-100.00,NE,48,2.0,5.0,43,-99.99,,,-99.99,,2013-01-17 02:02:00,
2013-01-16 18:12:00,55.0,35.0,-100.00,North,7,1.0,4.0,46,-99.99,,,-99.99,,2013-01-17 02:12:00,
2013-01-16 18:22:00,54.0,34.0,-100.00,NNE,17,2.0,4.0,47,-99.99,,,-99.99,,2013-01-17 02:22:00,
2013-01-16 18:32:00,54.0,34.0,-100.00,NE,34,2.0,4.0,47,-99.99,,,-99.99,,2013-01-17 02:32:00,
2013-01-16 18:42:00,54.0,34.0,-100.00,NE,34,2.0,4.0,47,-99.99,,,-99.99,,2013-01-17 02:42:00,
2013-01-16 18:52:00,54.0,34.0,-100.00,NE,34,2.0,4.0,47,-99.99,,,-99.99,,2013-01-17 02:52:00,
2013-01-16 19:02:00,49.0,34.0,-100.00,NE,43,2.0,5.0,55,-99.99,,,-99.99,,2013-01-17 03:02:00,
2013-01-16 19:12:00,50.0,33.0,-100.00,NNE,13,2.0,4.0,52,-99.99,,,-99.99,,2013-01-17 03:12:00,
2013-01-16 19:22:00,48.0,33.0,-100.00,NNE,29,1.0,4.0,56,-99.99,,,-99.99,,2013-01-17 03:22:00,
2013-01-16 19:32:00,49.0,32.0,-100.00,NE,41,2.0,6.0,51,-99.99,,,-99.99,,2013-01-17 03:32:00,
2013-01-16 19:42:00,48.0,32.0,-100.00,North,358,1.0,4.0,54,-99.99,,,-99.99,,2013-01-17 03:42:00,
2013-01-16 19:52:00,48.0,33.0,-100.00,NE,34,1.0,4.0,56,-99.99,,,-99.99,,2013-01-17 03:52:00,
2013-01-16 20:12:00,46.0,31.0,-100.00,North,354,1.0,2.0,56,-99.99,,,-99.99,,2013-01-17 04:12:00,
2013-01-16 20:22:00,46.0,32.0,-100.00,NE,39,2.0,4.0,57,-99.99,,,-99.99,,2013-01-17 04:22:00,
2013-01-16 20:32:00,46.0,32.0,-100.00,ENE,59,1.0,2.0,57,-99.99,,,-99.99,,2013-01-17 04:32:00,
2013-01-16 20:42:00,45.0,32.0,-100.00,NE,51,1.0,2.0,59,-99.99,,,-99.99,,2013-01-17 04:42:00,
2013-01-16 20:52:00,44.0,30.0,-100.00,NNE,31,1.0,4.0,58,-99.99,,,-99.99,,2013-01-17 04:52:00,
2013-01-16 21:03:00,45.0,31.0,-100.00,NNW,345,2.0,4.0,57,-99.99,,,-99.99,,2013-01-17 05:03:00,
2013-01-16 21:12:00,45.0,31.0,-100.00,NNE,14,1.0,4.0,57,-99.99,,,-99.99,,2013-01-17 05:12:00,
2013-01-16 21:22:00,45.0,30.0,-100.00,NW,326,1.0,3.0,56,-99.99,,,-99.99,,2013-01-17 05:22:00,
2013-01-16 21:32:00,45.0,30.0,-100.00,NE,37,1.0,4.0,55,-99.99,,,-99.99,,2013-01-17 05:32:00,
2013-01-16 21:42:00,44.0,29.0,-100.00,North,1,1.0,3.0,56,-99.99,,,-99.99,,2013-01-17 05:42:00,
2013-01-16 21:52:00,44.0,29.0,-100.00,NE,45,1.0,3.0,55,-99.99,,,-99.99,,2013-01-17 05:52:00,
2013-01-16 22:02:00,44.0,29.0,-100.00,East,79,1.0,2.0,56,-99.99,,,-99.99,,2013-01-17 06:02:00,
2013-01-16 22:11:00,46.0,29.0,-100.00,North,5,1.0,5.0,52,-99.99,,,-99.99,,2013-01-17 06:11:00,
2013-01-16 22:22:00,44.0,28.0,-100.00,WSW,252,1.0,3.0,54,-99.99,,,-99.99,,2013-01-17 06:22:00,
2013-01-16 22:32:00,44.0,29.0,-100.00,ENE,59,2.0,5.0,56,-99.99,,,-99.99,,2013-01-17 06:32:00,
2013-01-16 22:52:00,43.0,28.0,-100.00,SW,234,1.0,3.0,56,-99.99,,,-99.99,,2013-01-17 06:52:00,
2013-01-16 23:02:00,41.0,29.0,-100.00,West,275,1.0,5.0,62,-99.99,,,-99.99,,2013-01-17 07:02:00,
2013-01-16 23:11:00,43.0,29.0,-100.00,NE,47,2.0,6.0,57,-99.99,,,-99.99,,2013-01-17 07:11:00,
2013-01-16 23:22:00,44.0,28.0,-100.00,East,100,2.0,8.0,52,-99.99,,,-99.99,,2013-01-17 07:22:00,
2013-01-16 23:32:00,46.0,26.0,-100.00,NNE,21,3.0,7.0,46,-99.99,,,-99.99,,2013-01-17 07:32:00,
2013-01-16 23:42:00,44.0,27.0,-100.00,NNW,340,2.0,5.0,51,-99.99,,,-99.99,,2013-01-17 07:42:00,
2013-01-16 23:52:00,44.0,28.0,-100.00,NNW,340,4.0,10.0,52,-99.99,,,-99.99,,2013-01-17 07:52:00,